Terminal Aerodrome Forecast
Issued by NWS

Home | Current Version | Previous Version | Text Only | Print | Product List | Glossary On
Versions: 1 2 3 4 5 6 7 8 9 10 11 12 13 14 15 16 17
108
FTUS41 KPBZ 161730
TAFDUJ
TAF
KDUJ 161730Z 1618/1718 20005KT 2SM -SN SCT008 OVC015
      TEMPO 1618/1621 1SM -SN BKN008
     FM170100 24007KT 5SM -SN OVC015
     FM170600 27005KT P6SM BKN025=

USA.gov is the U.S. government's official web portal to all federal, state and local government web resources and services.